createdAt,value
2022-08-16T00:00:46.671Z,12.10
2022-08-16T00:03:15.024Z,10.48
2022-08-16T00:05:48.039Z,10.98
2022-08-16T00:11:06.319Z,11.85
2022-08-16T00:13:41.904Z,10.95
2022-08-16T00:17:11.403Z,11.07
2022-08-16T00:19:00.677Z,10.75
2022-08-16T00:21:29.207Z,13.13
2022-08-16T00:23:57.776Z,13.25
2022-08-16T00:26:36.291Z,12.27
2022-08-16T00:29:16.067Z,11.90
2022-08-16T00:31:59.487Z,12.13
2022-08-16T00:34:44.087Z,12.13
2022-08-16T00:37:18.735Z,12.90
2022-08-16T00:39:58.653Z,11.95
2022-08-16T00:42:32.164Z,11.88
2022-08-16T00:45:16.732Z,11.90
2022-08-16T00:47:48.915Z,14.05
2022-08-16T00:50:21.253Z,13.95
2022-08-16T00:52:51.301Z,14.65
2022-08-16T00:55:22.366Z,20.38
2022-08-16T00:58:00.145Z,35.90
2022-08-16T01:00:32.339Z,48.38
2022-08-16T01:03:11.729Z,21.70
2022-08-16T01:05:41.194Z,14.75
2022-08-16T01:08:36.237Z,14.80
2022-08-16T01:11:00.120Z,14.93
2022-08-16T01:13:33.194Z,12.27
2022-08-16T01:16:04.756Z,12.15
2022-08-16T01:18:45.534Z,13.30
2022-08-16T01:21:52.480Z,13.50
2022-08-16T01:24:52.018Z,12.77
2022-08-16T01:27:53.079Z,11.57
2022-08-16T01:30:27.867Z,11.90
2022-08-16T01:33:02.832Z,11.35
2022-08-16T01:35:58.963Z,11.00
2022-08-16T01:38:29.569Z,10.45
2022-08-16T01:41:02.562Z,11.25
2022-08-16T01:43:33.661Z,12.23
2022-08-16T01:46:30.206Z,11.88
2022-08-16T01:48:56.794Z,11.05
2022-08-16T01:51:27.792Z,11.98
2022-08-16T01:53:57.057Z,11.85
2022-08-16T01:56:29.003Z,13.55
2022-08-16T01:59:00.720Z,11.82
2022-08-16T02:01:31.813Z,11.40
2022-08-16T02:04:11.177Z,11.35
2022-08-16T02:06:46.087Z,11.80
2022-08-16T02:09:21.184Z,11.60
2022-08-16T02:11:56.591Z,11.93
2022-08-16T02:14:29.282Z,12.20
2022-08-16T02:17:02.438Z,12.27
2022-08-16T02:20:00.222Z,10.93
2022-08-16T02:22:34.664Z,10.88
2022-08-16T02:25:11.052Z,10.82
2022-08-16T02:27:41.206Z,11.63
2022-08-16T02:30:36.861Z,12.23
2022-08-16T02:33:04.175Z,10.95
2022-08-16T02:35:32.213Z,11.07
2022-08-16T02:38:01.456Z,11.52
2022-08-16T02:40:29.489Z,12.20
2022-08-16T02:42:57.499Z,11.65
2022-08-16T02:45:27.846Z,11.35
2022-08-16T02:48:00.224Z,13.65
2022-08-16T02:50:54.230Z,12.55
2022-08-16T02:53:23.527Z,13.00
2022-08-16T02:55:52.616Z,10.88
2022-08-16T02:58:25.170Z,11.20
2022-08-16T03:00:56.015Z,11.15
2022-08-16T03:04:49.735Z,12.13
2022-08-16T03:06:42.227Z,11.48
2022-08-16T03:09:16.308Z,11.02
2022-08-16T03:11:48.947Z,11.40
2022-08-16T03:14:21.342Z,11.15
2022-08-16T03:16:59.424Z,11.77
2022-08-16T03:19:52.751Z,11.40
2022-08-16T03:22:28.464Z,11.85
2022-08-16T03:25:02.972Z,11.73
2022-08-16T03:27:33.480Z,11.90
2022-08-16T03:30:15.271Z,12.98
2022-08-16T03:32:51.716Z,11.10
2022-08-16T03:35:32.701Z,10.80
2022-08-16T03:38:04.403Z,10.93
2022-08-16T03:40:54.103Z,10.88
2022-08-16T03:43:52.029Z,11.27
2022-08-16T03:46:48.332Z,11.70
2022-08-16T03:49:10.835Z,11.40
2022-08-16T03:51:43.067Z,11.50
2022-08-16T03:54:17.059Z,12.45
2022-08-16T03:56:56.997Z,11.48
2022-08-16T03:59:30.405Z,13.55
2022-08-16T04:02:02.794Z,11.80
2022-08-16T04:04:33.971Z,13.35
2022-08-16T04:07:07.225Z,12.88
2022-08-16T04:09:40.803Z,12.55
2022-08-16T04:12:53.706Z,12.00
2022-08-16T04:15:02.298Z,11.77
2022-08-16T04:17:35.296Z,12.07
2022-08-16T04:20:23.639Z,12.18
2022-08-16T04:22:56.564Z,11.60
2022-08-16T04:25:27.385Z,11.68
2022-08-16T04:27:55.904Z,11.95
2022-08-16T04:30:34.845Z,12.40
2022-08-16T04:33:04.680Z,12.82
2022-08-16T04:35:35.355Z,14.10
2022-08-16T04:38:10.656Z,13.27
2022-08-16T04:40:50.204Z,13.13
2022-08-16T04:43:19.054Z,13.43
2022-08-16T04:45:47.538Z,14.95
2022-08-16T04:48:34.358Z,14.30
2022-08-16T04:51:12.008Z,14.45
2022-08-16T04:53:46.286Z,15.55
2022-08-16T04:56:16.644Z,15.40
2022-08-16T04:58:46.961Z,14.10
2022-08-16T05:01:18.386Z,14.90
2022-08-16T05:03:59.739Z,14.73
2022-08-16T05:06:42.146Z,14.30
2022-08-16T05:09:29.830Z,14.13
2022-08-16T05:11:58.217Z,15.27
2022-08-16T05:14:45.677Z,16.27
2022-08-16T05:17:24.903Z,15.20
2022-08-16T05:19:58.269Z,15.30
2022-08-16T05:22:39.404Z,14.80
2022-08-16T05:25:16.012Z,15.70
2022-08-16T05:27:49.873Z,15.35
2022-08-16T05:30:34.485Z,15.43
2022-08-16T05:33:16.289Z,15.68
2022-08-16T05:35:55.478Z,15.45
2022-08-16T05:38:38.934Z,13.75
2022-08-16T05:41:13.819Z,13.10
2022-08-16T05:43:47.805Z,14.88
2022-08-16T05:46:33.834Z,13.60
2022-08-16T05:49:16.467Z,14.23
2022-08-16T05:51:51.210Z,12.43
2022-08-16T05:54:24.703Z,14.15
2022-08-16T05:56:56.674Z,15.25
2022-08-16T05:59:26.972Z,14.02
2022-08-16T06:01:56.691Z,12.07
2022-08-16T06:04:34.878Z,13.48
2022-08-16T06:07:09.089Z,13.45
2022-08-16T06:09:59.871Z,13.95
2022-08-16T06:12:31.740Z,12.88
2022-08-16T06:15:10.903Z,13.50
2022-08-16T06:17:43.797Z,14.02
2022-08-16T06:20:34.736Z,13.65
2022-08-16T06:23:21.652Z,13.95
2022-08-16T06:25:57.197Z,13.27
2022-08-16T06:28:35.537Z,13.88
2022-08-16T06:31:12.300Z,14.85
2022-08-16T06:33:44.723Z,13.05
2022-08-16T06:36:17.009Z,14.90
2022-08-16T06:38:59.765Z,13.77
2022-08-16T06:41:53.830Z,12.80
2022-08-16T06:44:44.260Z,12.57
2022-08-16T06:47:25.320Z,12.65
2022-08-16T06:50:28.858Z,13.05
2022-08-16T06:53:03.863Z,12.35
2022-08-16T06:55:38.626Z,12.90
2022-08-16T06:58:21.917Z,13.50
2022-08-16T07:01:02.671Z,14.68
2022-08-16T07:03:55.581Z,14.43
2022-08-16T07:06:21.744Z,14.20
2022-08-16T07:08:50.390Z,12.65
2022-08-16T07:11:20.978Z,11.65
2022-08-16T07:14:26.498Z,12.88
2022-08-16T07:16:59.243Z,13.00
2022-08-16T07:20:01.476Z,11.02
2022-08-16T07:22:37.873Z,10.50
2022-08-16T07:25:16.065Z,10.13
2022-08-16T07:27:45.458Z,9.88
2022-08-16T07:30:39.091Z,11.25
2022-08-16T07:33:07.523Z,12.07
2022-08-16T07:35:44.330Z,11.35
2022-08-16T07:38:20.057Z,10.40
2022-08-16T07:41:01.245Z,9.32
2022-08-16T07:43:31.877Z,8.80
2022-08-16T07:46:04.358Z,10.18
2022-08-16T07:48:36.859Z,9.98
2022-08-16T07:51:08.960Z,9.45
2022-08-16T07:53:43.824Z,8.70
2022-08-16T07:56:14.543Z,10.38
2022-08-16T07:58:43.492Z,10.38
2022-08-16T08:01:15.205Z,9.45
2022-08-16T08:03:52.254Z,9.35
2022-08-16T08:06:27.838Z,9.57
2022-08-16T08:09:00.697Z,9.20
2022-08-16T08:11:30.247Z,9.82
2022-08-16T08:14:03.079Z,9.40
2022-08-16T08:19:26.490Z,8.77
2022-08-16T08:22:01.507Z,8.45
2022-08-16T08:24:38.980Z,10.20
2022-08-16T08:27:13.463Z,9.15
2022-08-16T08:30:52.391Z,8.90
2022-08-16T08:32:57.604Z,9.18
2022-08-16T08:35:30.285Z,8.38
2022-08-16T08:38:00.445Z,9.00
2022-08-16T08:40:30.983Z,8.18
2022-08-16T08:43:11.409Z,9.63
2022-08-16T08:45:47.810Z,7.90
2022-08-16T08:48:34.112Z,8.68
2022-08-16T08:51:14.330Z,9.25
2022-08-16T08:53:57.607Z,7.88
2022-08-16T08:56:32.379Z,8.32
2022-08-16T08:59:32.085Z,9.68
2022-08-16T09:02:00.117Z,9.20
2022-08-16T09:04:34.879Z,9.90
2022-08-16T09:07:05.973Z,7.78
2022-08-16T09:09:41.011Z,8.82
2022-08-16T09:12:36.233Z,10.15
2022-08-16T09:15:13.746Z,7.40
2022-08-16T09:17:51.642Z,6.93
2022-08-16T09:20:23.796Z,6.55
2022-08-16T09:22:56.212Z,5.50
2022-08-16T09:25:33.516Z,6.03
2022-08-16T09:28:08.988Z,5.70
2022-08-16T09:33:12.989Z,6.13
2022-08-16T09:35:42.593Z,5.40
2022-08-16T09:38:31.441Z,6.60
2022-08-16T09:41:02.033Z,6.10
2022-08-16T09:43:59.632Z,5.03
2022-08-16T09:46:45.785Z,5.32
2022-08-16T09:49:05.779Z,5.55
2022-08-16T09:51:37.317Z,5.15
2022-08-16T09:54:09.698Z,5.45
2022-08-16T09:56:39.539Z,5.35
2022-08-16T09:59:23.538Z,4.75
2022-08-16T10:01:53.444Z,4.90
2022-08-16T10:04:33.435Z,6.13
2022-08-16T10:07:15.226Z,5.70
2022-08-16T10:09:55.355Z,5.38
2022-08-16T10:12:46.750Z,5.75
2022-08-16T10:15:23.989Z,5.30
2022-08-16T10:18:01.224Z,5.20
2022-08-16T10:20:38.250Z,5.10
2022-08-16T10:23:08.587Z,5.38
2022-08-16T10:27:18.899Z,5.53
2022-08-16T10:28:39.864Z,5.88
2022-08-16T10:31:14.448Z,5.78
2022-08-16T10:33:46.740Z,5.47
2022-08-16T10:36:38.758Z,6.13
2022-08-16T10:39:05.216Z,6.65
2022-08-16T10:41:36.157Z,16.27
2022-08-16T10:44:04.586Z,8.15
2022-08-16T10:46:41.794Z,7.53
2022-08-16T10:49:18.236Z,6.10
2022-08-16T10:52:02.037Z,5.80
2022-08-16T10:54:33.891Z,6.20
2022-08-16T10:57:24.430Z,6.32
2022-08-16T10:59:58.283Z,6.60
2022-08-16T11:03:37.599Z,6.05
2022-08-16T11:05:16.453Z,5.95
2022-08-16T11:07:52.279Z,6.10
2022-08-16T11:16:26.421Z,6.00
2022-08-16T11:19:05.664Z,7.40
2022-08-16T11:24:41.410Z,5.10
2022-08-16T11:27:19.574Z,5.80
2022-08-16T11:29:52.262Z,4.05
2022-08-16T11:32:29.900Z,4.50
2022-08-16T11:35:10.323Z,4.55
2022-08-16T11:40:36.274Z,5.00
2022-08-16T11:43:06.749Z,4.30
2022-08-16T11:45:38.192Z,4.55
2022-08-16T11:48:06.017Z,4.78
2022-08-16T11:50:35.025Z,4.68
2022-08-16T11:53:04.043Z,4.35
2022-08-16T11:55:32.905Z,4.13
2022-08-16T11:58:01.476Z,4.65
2022-08-16T12:00:49.768Z,4.40
2022-08-16T12:03:21.085Z,3.88
2022-08-16T12:06:00.840Z,4.55
2022-08-16T12:08:29.834Z,5.03
2022-08-16T12:11:02.393Z,5.13
2022-08-16T12:13:30.615Z,5.38
2022-08-16T12:15:58.019Z,5.25
2022-08-16T12:18:25.689Z,5.03
2022-08-16T12:20:55.197Z,5.07
2022-08-16T12:23:26.211Z,4.70
2022-08-16T12:25:53.468Z,4.95
2022-08-16T12:28:36.648Z,4.93
2022-08-16T12:31:11.057Z,4.68
2022-08-16T12:33:45.097Z,4.90
2022-08-16T12:36:14.167Z,4.80
2022-08-16T12:38:48.237Z,5.07
2022-08-16T12:41:24.655Z,4.93
2022-08-16T12:43:57.067Z,5.07
2022-08-16T12:46:31.146Z,5.28
2022-08-16T12:49:03.554Z,5.47
2022-08-16T12:51:59.555Z,4.82
2022-08-16T12:54:25.083Z,4.47
2022-08-16T12:56:52.686Z,5.43
2022-08-16T12:59:21.760Z,4.88
2022-08-16T13:01:58.336Z,5.03
2022-08-16T13:04:33.287Z,4.50
2022-08-16T13:09:42.388Z,4.65
2022-08-16T13:12:25.000Z,4.60
2022-08-16T13:14:54.121Z,4.63
2022-08-16T13:17:26.315Z,4.78
2022-08-16T13:20:07.002Z,5.22
2022-08-16T13:22:49.969Z,4.45
2022-08-16T13:25:22.977Z,4.85
2022-08-16T13:28:14.969Z,5.03
2022-08-16T13:30:49.631Z,4.13
2022-08-16T13:33:29.836Z,3.90
2022-08-16T13:36:01.436Z,4.70
2022-08-16T13:38:37.061Z,4.50
2022-08-16T13:41:11.173Z,4.38
2022-08-16T13:43:40.032Z,4.97
2022-08-16T13:46:07.978Z,5.00
2022-08-16T13:48:44.764Z,3.80
2022-08-16T13:51:19.041Z,3.60
2022-08-16T13:53:49.727Z,4.28
2022-08-16T13:56:25.151Z,4.30
2022-08-16T13:58:54.873Z,4.32
2022-08-16T14:01:23.374Z,4.63
2022-08-16T14:03:54.636Z,4.63
2022-08-16T14:06:24.884Z,4.57
2022-08-16T14:09:06.136Z,4.90
2022-08-16T14:11:35.680Z,4.90
2022-08-16T14:14:05.300Z,5.97
2022-08-16T14:16:34.815Z,4.90
2022-08-16T14:19:03.757Z,3.05
2022-08-16T14:21:34.889Z,3.10
2022-08-16T14:24:07.871Z,2.33
2022-08-16T14:26:44.056Z,2.53
2022-08-16T14:29:11.658Z,2.60
2022-08-16T14:31:39.848Z,2.65
2022-08-16T14:34:11.141Z,2.30
2022-08-16T14:36:40.843Z,2.55
2022-08-16T14:39:09.640Z,4.63
2022-08-16T14:41:37.722Z,3.38
2022-08-16T14:44:08.372Z,3.80
2022-08-16T14:46:36.379Z,4.28
2022-08-16T14:49:04.611Z,3.45
2022-08-16T14:51:38.041Z,3.67
2022-08-16T14:54:05.828Z,3.38
2022-08-16T14:56:43.003Z,3.40
2022-08-16T14:59:14.263Z,3.90
2022-08-16T15:01:57.378Z,4.22
2022-08-16T15:04:39.965Z,3.80
2022-08-16T15:07:11.088Z,3.58
2022-08-16T15:09:59.991Z,4.25
2022-08-16T15:12:33.907Z,4.25
2022-08-16T15:15:12.537Z,3.90
2022-08-16T15:17:56.184Z,3.70
2022-08-16T15:20:31.679Z,3.38
2022-08-16T15:23:02.159Z,3.95
2022-08-16T15:25:34.227Z,3.55
2022-08-16T15:28:05.599Z,3.60
2022-08-16T15:30:57.780Z,3.95
2022-08-16T15:33:27.653Z,3.83
2022-08-16T15:35:58.085Z,3.20
2022-08-16T15:38:55.343Z,3.25
2022-08-16T15:41:43.073Z,6.18
2022-08-16T15:44:22.327Z,3.95
2022-08-16T15:46:56.355Z,3.92
2022-08-16T15:49:37.296Z,3.45
2022-08-16T15:52:12.286Z,3.53
2022-08-16T15:54:52.572Z,3.67
2022-08-16T15:57:23.289Z,5.38
2022-08-16T15:59:56.087Z,3.47
2022-08-16T16:02:38.630Z,3.40
2022-08-16T16:05:10.249Z,3.53
2022-08-16T16:07:40.694Z,3.17
2022-08-16T16:10:13.039Z,3.05
2022-08-16T16:12:52.988Z,3.13
2022-08-16T16:15:25.065Z,3.22
2022-08-16T16:17:53.737Z,3.35
2022-08-16T16:20:24.206Z,3.55
2022-08-16T16:22:52.587Z,4.13
2022-08-16T16:25:20.464Z,4.35
2022-08-16T16:27:49.118Z,4.93
2022-08-16T16:30:37.794Z,5.05
2022-08-16T16:33:21.264Z,3.97
2022-08-16T16:35:57.259Z,4.53
2022-08-16T16:38:30.992Z,3.67
2022-08-16T16:41:02.515Z,4.07
2022-08-16T16:43:31.433Z,3.80
2022-08-16T16:46:01.643Z,3.88
2022-08-16T16:48:34.818Z,3.72
2022-08-16T16:51:09.127Z,3.67
2022-08-16T16:53:41.552Z,4.60
2022-08-16T16:56:19.834Z,4.60
2022-08-16T16:59:01.449Z,4.47
2022-08-16T17:01:35.019Z,3.88
2022-08-16T17:04:31.971Z,3.80
2022-08-16T17:07:02.135Z,4.88
2022-08-16T17:09:30.457Z,4.00
2022-08-16T17:11:58.628Z,4.45
2022-08-16T17:14:31.891Z,4.68
2022-08-16T17:17:04.657Z,4.18
2022-08-16T17:19:32.222Z,4.88
2022-08-16T17:22:00.605Z,3.90
2022-08-16T17:24:39.842Z,4.68
2022-08-16T17:27:08.306Z,5.13
2022-08-16T17:29:45.909Z,5.82
2022-08-16T17:32:47.509Z,5.30
2022-08-16T17:35:18.172Z,5.55
2022-08-16T17:37:51.509Z,6.97
2022-08-16T17:40:40.346Z,6.70
2022-08-16T17:43:16.421Z,5.55
2022-08-16T17:45:44.530Z,5.70
2022-08-16T17:48:12.335Z,6.22
2022-08-16T17:50:41.762Z,5.60
2022-08-16T17:53:10.447Z,4.45
2022-08-16T17:55:42.194Z,6.45
2022-08-16T17:58:22.930Z,6.57
2022-08-16T18:00:53.350Z,6.75
2022-08-16T18:04:02.993Z,8.13
2022-08-16T18:06:19.233Z,9.95
2022-08-16T18:08:48.425Z,12.00
2022-08-16T18:11:18.316Z,8.18
2022-08-16T18:13:46.832Z,9.20
2022-08-16T18:16:16.944Z,10.27
2022-08-16T18:18:46.155Z,9.68
2022-08-16T18:21:34.068Z,10.65
2022-08-16T18:24:01.766Z,10.70
2022-08-16T18:26:28.789Z,10.20
2022-08-16T18:28:56.333Z,10.90
2022-08-16T18:31:23.267Z,9.65
2022-08-16T18:33:54.724Z,7.10
2022-08-16T18:36:25.134Z,6.22
2022-08-16T18:38:53.310Z,8.20
2022-08-16T18:41:22.584Z,11.23
2022-08-16T18:43:58.839Z,9.13
2022-08-16T18:46:39.965Z,9.27
2022-08-16T18:49:09.474Z,8.73
2022-08-16T18:51:42.616Z,9.48
2022-08-16T18:54:12.485Z,7.80
2022-08-16T18:56:56.438Z,6.57
2022-08-16T18:59:31.054Z,6.55
2022-08-16T19:02:05.354Z,7.80
2022-08-16T19:04:50.466Z,7.65
2022-08-16T19:07:31.271Z,8.63
2022-08-16T19:10:01.269Z,6.55
2022-08-16T19:12:38.540Z,5.05
2022-08-16T19:15:15.742Z,6.28
2022-08-16T19:17:45.469Z,5.28
2022-08-16T19:20:19.990Z,5.22
2022-08-16T19:23:05.813Z,7.22
2022-08-16T19:25:48.311Z,7.65
2022-08-16T19:28:49.620Z,5.75
2022-08-16T19:31:20.620Z,5.78
2022-08-16T19:33:53.420Z,5.45
2022-08-16T19:36:34.059Z,6.43
2022-08-16T19:39:07.276Z,6.95
2022-08-16T19:41:38.504Z,7.80
2022-08-16T19:44:06.897Z,6.05
2022-08-16T19:46:35.708Z,7.22
2022-08-16T19:49:03.888Z,6.90
2022-08-16T19:51:31.433Z,7.20
2022-08-16T19:53:58.412Z,7.72
2022-08-16T19:56:27.150Z,6.70
2022-08-16T20:01:44.549Z,6.93
2022-08-16T20:04:13.014Z,8.80
2022-08-16T20:06:43.524Z,9.98
2022-08-16T20:09:15.391Z,8.82
2022-08-16T20:11:45.012Z,8.50
2022-08-16T20:14:24.466Z,8.45
2022-08-16T20:16:58.935Z,8.30
2022-08-16T20:19:28.203Z,7.97
2022-08-16T20:21:56.725Z,7.93
2022-08-16T20:24:40.168Z,9.18
2022-08-16T20:27:12.428Z,8.02
2022-08-16T20:29:41.671Z,9.27
2022-08-16T20:32:13.326Z,8.35
2022-08-16T20:34:42.057Z,9.18
2022-08-16T20:37:12.866Z,7.85
2022-08-16T20:39:41.373Z,9.82
2022-08-16T20:42:08.416Z,8.77
2022-08-16T20:44:35.824Z,8.15
2022-08-16T20:47:03.044Z,7.32
2022-08-16T20:49:30.713Z,6.53
2022-08-16T20:51:59.658Z,6.25
2022-08-16T20:54:29.584Z,9.35
2022-08-16T20:56:56.937Z,7.32
2022-08-16T20:59:24.409Z,7.97
2022-08-16T21:01:52.204Z,8.60
2022-08-16T21:04:21.777Z,8.18
2022-08-16T21:06:54.314Z,7.60
2022-08-16T21:09:27.907Z,7.68
2022-08-16T21:11:59.031Z,7.85
2022-08-16T21:14:26.141Z,8.48
2022-08-16T21:16:55.732Z,7.65
2022-08-16T21:19:23.184Z,8.90
2022-08-16T21:21:50.564Z,9.68
2022-08-16T21:24:17.998Z,10.02
2022-08-16T21:26:55.069Z,8.88
2022-08-16T21:29:25.118Z,9.93
2022-08-16T21:32:12.604Z,11.30
2022-08-16T21:34:41.309Z,8.75
2022-08-16T21:37:08.550Z,10.38
2022-08-16T21:39:36.444Z,14.60
2022-08-16T21:42:12.317Z,13.52
2022-08-16T21:44:39.959Z,13.32
2022-08-16T21:47:08.170Z,15.48
2022-08-16T21:49:37.854Z,15.55
2022-08-16T21:52:07.611Z,11.70
2022-08-16T21:54:35.771Z,11.48
2022-08-16T21:57:10.179Z,7.78
2022-08-16T21:59:38.618Z,7.43
2022-08-16T22:02:06.883Z,6.07
2022-08-16T22:04:37.580Z,6.43
2022-08-16T22:07:06.049Z,6.53
2022-08-16T22:09:33.430Z,5.95
2022-08-16T22:12:03.873Z,5.53
2022-08-16T22:14:31.047Z,6.57
2022-08-16T22:16:58.660Z,6.43
2022-08-16T22:19:25.887Z,6.80
2022-08-16T22:21:53.255Z,5.68
2022-08-16T22:24:20.552Z,7.07
2022-08-16T22:26:48.128Z,6.25
2022-08-16T22:29:15.260Z,6.20
2022-08-16T22:31:44.488Z,6.25
2022-08-16T22:34:12.450Z,5.40
2022-08-16T22:36:40.085Z,6.00
2022-08-16T22:39:10.966Z,6.35
2022-08-16T22:41:40.283Z,6.10
2022-08-16T22:44:07.597Z,5.80
2022-08-16T22:46:36.916Z,6.30
2022-08-16T22:49:08.175Z,5.47
2022-08-16T22:51:38.314Z,5.70
2022-08-16T22:54:42.570Z,5.85
2022-08-16T22:56:54.834Z,5.95
2022-08-16T22:59:21.839Z,6.43
2022-08-16T23:01:49.387Z,5.35
2022-08-16T23:04:18.360Z,5.50
2022-08-16T23:06:47.601Z,4.50
2022-08-16T23:09:14.586Z,4.82
2022-08-16T23:11:42.748Z,4.45
2022-08-16T23:14:10.030Z,4.32
2022-08-16T23:16:37.385Z,4.85
2022-08-16T23:19:11.135Z,5.13
2022-08-16T23:21:41.948Z,5.20
2022-08-16T23:24:10.340Z,5.82
2022-08-16T23:26:46.267Z,5.53
2022-08-16T23:29:23.642Z,5.18
2022-08-16T23:32:11.252Z,4.90
2022-08-16T23:34:38.541Z,6.20
2022-08-16T23:37:06.755Z,5.10
2022-08-16T23:39:36.190Z,4.15
2022-08-16T23:42:12.595Z,4.70
2022-08-16T23:44:57.932Z,4.35
2022-08-16T23:47:26.471Z,4.70
2022-08-16T23:50:01.203Z,5.25
2022-08-16T23:55:17.944Z,5.72
2022-08-16T23:57:46.266Z,5.07
